sensor_id;sensor_type;location;lat;lon;timestamp;pressure;altitude;pressure_sealevel;temperature;humidity
81181;BME280;70650;51.408;7.132;2023-07-31T00:00:29;100063.00;;;15.84;90.71
81181;BME280;70650;51.408;7.132;2023-07-31T00:02:54;100061.06;;;15.86;90.56
81181;BME280;70650;51.408;7.132;2023-07-31T00:05:20;100081.41;;;15.98;90.08
81181;BME280;70650;51.408;7.132;2023-07-31T00:07:45;100073.66;;;15.95;89.99
81181;BME280;70650;51.408;7.132;2023-07-31T00:10:10;100072.91;;;15.93;89.89
81181;BME280;70650;51.408;7.132;2023-07-31T00:12:37;100068.19;;;15.97;90.28
81181;BME280;70650;51.408;7.132;2023-07-31T00:15:03;100061.78;;;15.88;90.75
81181;BME280;70650;51.408;7.132;2023-07-31T00:17:28;100064.34;;;15.89;89.83
81181;BME280;70650;51.408;7.132;2023-07-31T00:19:54;100071.22;;;15.92;90.13
81181;BME280;70650;51.408;7.132;2023-07-31T00:22:19;100055.50;;;15.89;89.98
81181;BME280;70650;51.408;7.132;2023-07-31T00:24:44;100067.72;;;15.92;90.09
81181;BME280;70650;51.408;7.132;2023-07-31T00:27:09;100057.31;;;15.88;90.43
81181;BME280;70650;51.408;7.132;2023-07-31T00:29:36;100052.81;;;16.00;89.93
81181;BME280;70650;51.408;7.132;2023-07-31T00:32:01;100063.09;;;15.94;90.17
81181;BME280;70650;51.408;7.132;2023-07-31T00:34:27;100063.00;;;15.84;90.24
81181;BME280;70650;51.408;7.132;2023-07-31T00:36:52;100061.31;;;15.94;89.64
81181;BME280;70650;51.408;7.132;2023-07-31T00:39:17;100048.72;;;15.85;90.20
81181;BME280;70650;51.408;7.132;2023-07-31T00:41:43;100065.19;;;15.90;89.85
81181;BME280;70650;51.408;7.132;2023-07-31T00:44:08;100055.97;;;15.94;89.32
81181;BME280;70650;51.408;7.132;2023-07-31T00:46:33;100051.59;;;15.93;89.17
81181;BME280;70650;51.408;7.132;2023-07-31T00:48:59;100055.72;;;15.97;89.23
81181;BME280;70650;51.408;7.132;2023-07-31T00:51:24;100048.41;;;15.99;88.87
81181;BME280;70650;51.408;7.132;2023-07-31T00:53:50;100054.66;;;15.88;89.91
81181;BME280;70650;51.408;7.132;2023-07-31T00:56:16;100056.81;;;15.95;89.33
81181;BME280;70650;51.408;7.132;2023-07-31T00:58:41;100070.03;;;15.96;88.97
81181;BME280;70650;51.408;7.132;2023-07-31T01:01:07;100057.78;;;15.94;89.09
81181;BME280;70650;51.408;7.132;2023-07-31T01:03:32;100043.84;;;15.90;89.42
81181;BME280;70650;51.408;7.132;2023-07-31T01:09:00;100050.88;;;15.91;88.45
81181;BME280;70650;51.408;7.132;2023-07-31T01:11:30;100047.97;;;15.94;88.17
81181;BME280;70650;51.408;7.132;2023-07-31T01:13:55;100051.72;;;15.92;88.92
81181;BME280;70650;51.408;7.132;2023-07-31T01:16:21;100036.00;;;15.88;88.67
81181;BME280;70650;51.408;7.132;2023-07-31T01:18:46;100043.13;;;15.88;89.25
81181;BME280;70650;51.408;7.132;2023-07-31T01:26:55;100038.38;;;15.92;89.12
81181;BME280;70650;51.408;7.132;2023-07-31T01:29:40;100050.25;;;15.99;87.74
81181;BME280;70650;51.408;7.132;2023-07-31T01:32:09;100056.22;;;15.91;88.60
81181;BME280;70650;51.408;7.132;2023-07-31T01:34:36;100046.53;;;15.90;88.25
81181;BME280;70650;51.408;7.132;2023-07-31T01:37:02;100050.50;;;15.96;87.98
81181;BME280;70650;51.408;7.132;2023-07-31T01:39:28;100063.22;;;15.92;87.99
81181;BME280;70650;51.408;7.132;2023-07-31T01:41:53;100052.84;;;15.89;88.17
81181;BME280;70650;51.408;7.132;2023-07-31T01:44:19;100047.22;;;15.92;88.07
81181;BME280;70650;51.408;7.132;2023-07-31T01:46:44;100047.00;;;15.95;87.23
81181;BME280;70650;51.408;7.132;2023-07-31T01:49:09;100051.13;;;15.88;87.51
81181;BME280;70650;51.408;7.132;2023-07-31T01:51:35;100039.72;;;15.86;88.34
81181;BME280;70650;51.408;7.132;2023-07-31T01:54:01;100043.72;;;15.92;87.57
81181;BME280;70650;51.408;7.132;2023-07-31T01:56:26;100037.31;;;15.94;87.28
81181;BME280;70650;51.408;7.132;2023-07-31T01:58:52;100036.81;;;16.00;86.53
81181;BME280;70650;51.408;7.132;2023-07-31T02:01:17;100028.56;;;15.92;86.98
81181;BME280;70650;51.408;7.132;2023-07-31T02:03:43;100027.00;;;15.89;87.03
81181;BME280;70650;51.408;7.132;2023-07-31T02:06:08;100025.31;;;15.88;86.48
81181;BME280;70650;51.408;7.132;2023-07-31T02:08:33;100040.91;;;15.93;86.86
81181;BME280;70650;51.408;7.132;2023-07-31T02:10:59;100025.44;;;15.87;86.85
81181;BME280;70650;51.408;7.132;2023-07-31T02:13:24;100033.06;;;15.92;86.27
81181;BME280;70650;51.408;7.132;2023-07-31T02:15:49;100031.59;;;15.87;86.16
81181;BME280;70650;51.408;7.132;2023-07-31T02:18:15;100021.34;;;15.83;86.47
81181;BME280;70650;51.408;7.132;2023-07-31T02:20:41;100021.31;;;15.94;85.80
81181;BME280;70650;51.408;7.132;2023-07-31T02:23:06;100012.94;;;15.87;86.42
81181;BME280;70650;51.408;7.132;2023-07-31T02:25:31;100010.88;;;15.91;85.94
81181;BME280;70650;51.408;7.132;2023-07-31T02:27:57;100015.09;;;15.94;85.03
81181;BME280;70650;51.408;7.132;2023-07-31T02:30:22;100022.91;;;15.85;85.61
81181;BME280;70650;51.408;7.132;2023-07-31T02:32:47;100015.50;;;15.89;86.00
81181;BME280;70650;51.408;7.132;2023-07-31T02:35:13;100009.06;;;15.92;85.76
81181;BME280;70650;51.408;7.132;2023-07-31T02:37:42;100019.50;;;15.95;84.73
81181;BME280;70650;51.408;7.132;2023-07-31T02:40:08;100023.50;;;15.89;84.93
81181;BME280;70650;51.408;7.132;2023-07-31T02:42:33;100013.78;;;15.88;85.09
81181;BME280;70650;51.408;7.132;2023-07-31T02:44:58;100017.31;;;15.88;85.68
81181;BME280;70650;51.408;7.132;2023-07-31T02:47:23;100009.19;;;15.90;84.86
81181;BME280;70650;51.408;7.132;2023-07-31T02:49:49;100002.03;;;15.90;85.02
81181;BME280;70650;51.408;7.132;2023-07-31T02:52:14;100004.72;;;15.90;84.87
81181;BME280;70650;51.408;7.132;2023-07-31T02:54:39;100001.19;;;15.90;84.69
81181;BME280;70650;51.408;7.132;2023-07-31T02:57:05;100009.66;;;15.95;84.66
81181;BME280;70650;51.408;7.132;2023-07-31T02:59:30;99997.78;;;15.88;84.80
81181;BME280;70650;51.408;7.132;2023-07-31T03:01:56;100017.56;;;15.85;85.06
81181;BME280;70650;51.408;7.132;2023-07-31T03:04:22;99998.53;;;15.90;84.54
81181;BME280;70650;51.408;7.132;2023-07-31T03:06:47;99995.72;;;15.92;84.52
81181;BME280;70650;51.408;7.132;2023-07-31T03:09:12;99994.25;;;15.99;84.93
81181;BME280;70650;51.408;7.132;2023-07-31T03:11:38;99995.22;;;15.98;84.79
81181;BME280;70650;51.408;7.132;2023-07-31T03:14:03;99993.31;;;16.00;84.73
81181;BME280;70650;51.408;7.132;2023-07-31T03:16:28;99992.19;;;16.02;84.79
81181;BME280;70650;51.408;7.132;2023-07-31T03:18:54;99983.34;;;16.02;84.72
81181;BME280;70650;51.408;7.132;2023-07-31T03:21:19;99982.88;;;15.97;85.72
81181;BME280;70650;51.408;7.132;2023-07-31T03:23:44;99975.22;;;16.03;84.57
81181;BME280;70650;51.408;7.132;2023-07-31T03:26:10;99983.59;;;15.99;85.15
81181;BME280;70650;51.408;7.132;2023-07-31T03:28:36;99982.50;;;16.01;85.09
81181;BME280;70650;51.408;7.132;2023-07-31T03:31:01;99993.13;;;16.12;84.34
81181;BME280;70650;51.408;7.132;2023-07-31T03:33:27;99985.03;;;16.03;84.88
81181;BME280;70650;51.408;7.132;2023-07-31T03:35:53;99984.16;;;16.13;84.26
81181;BME280;70650;51.408;7.132;2023-07-31T03:38:18;99985.38;;;16.09;84.93
81181;BME280;70650;51.408;7.132;2023-07-31T03:40:44;99985.50;;;16.08;84.68
81181;BME280;70650;51.408;7.132;2023-07-31T03:43:10;99986.34;;;16.08;84.88
81181;BME280;70650;51.408;7.132;2023-07-31T03:45:35;99982.31;;;16.14;85.04
81181;BME280;70650;51.408;7.132;2023-07-31T03:48:00;99976.28;;;16.12;84.84
81181;BME280;70650;51.408;7.132;2023-07-31T03:50:26;99968.38;;;16.10;84.54
81181;BME280;70650;51.408;7.132;2023-07-31T03:52:52;99980.84;;;16.21;83.85
81181;BME280;70650;51.408;7.132;2023-07-31T03:55:18;99987.28;;;16.19;83.66
81181;BME280;70650;51.408;7.132;2023-07-31T03:57:43;99988.22;;;16.29;83.41
81181;BME280;70650;51.408;7.132;2023-07-31T04:00:10;99983.72;;;16.29;83.64
81181;BME280;70650;51.408;7.132;2023-07-31T04:02:36;99983.81;;;16.28;83.70
81181;BME280;70650;51.408;7.132;2023-07-31T04:05:01;99980.22;;;16.29;84.31
81181;BME280;70650;51.408;7.132;2023-07-31T04:07:26;99979.47;;;16.27;84.49
81181;BME280;70650;51.408;7.132;2023-07-31T04:09:52;99977.41;;;16.30;83.85
81181;BME280;70650;51.408;7.132;2023-07-31T04:12:17;99966.66;;;16.21;84.51
81181;BME280;70650;51.408;7.132;2023-07-31T04:14:42;99972.59;;;16.24;84.69
81181;BME280;70650;51.408;7.132;2023-07-31T04:17:07;99969.91;;;16.24;84.71
81181;BME280;70650;51.408;7.132;2023-07-31T04:19:33;99978.38;;;16.29;84.99
81181;BME280;70650;51.408;7.132;2023-07-31T04:21:58;99969.31;;;16.21;85.39
81181;BME280;70650;51.408;7.132;2023-07-31T04:24:23;99974.88;;;16.29;85.09
81181;BME280;70650;51.408;7.132;2023-07-31T04:26:53;99966.97;;;16.27;84.36
81181;BME280;70650;51.408;7.132;2023-07-31T04:29:19;99961.53;;;16.29;84.37
81181;BME280;70650;51.408;7.132;2023-07-31T04:31:44;99951.81;;;16.28;84.40
81181;BME280;70650;51.408;7.132;2023-07-31T04:34:09;99962.09;;;16.32;84.59
81181;BME280;70650;51.408;7.132;2023-07-31T04:36:35;99958.88;;;16.29;84.84
81181;BME280;70650;51.408;7.132;2023-07-31T04:39:00;99963.94;;;16.32;84.98
81181;BME280;70650;51.408;7.132;2023-07-31T04:41:26;99955.22;;;16.30;84.86
81181;BME280;70650;51.408;7.132;2023-07-31T04:43:51;99943.63;;;16.20;85.87
81181;BME280;70650;51.408;7.132;2023-07-31T04:46:17;99953.41;;;16.30;85.58
81181;BME280;70650;51.408;7.132;2023-07-31T04:48:43;99954.47;;;16.28;85.72
81181;BME280;70650;51.408;7.132;2023-07-31T04:51:08;99945.91;;;16.24;85.79
81181;BME280;70650;51.408;7.132;2023-07-31T04:53:34;99951.56;;;16.31;85.81
81181;BME280;70650;51.408;7.132;2023-07-31T04:55:59;99947.22;;;16.30;85.83
81181;BME280;70650;51.408;7.132;2023-07-31T04:58:25;99944.41;;;16.31;85.14
81181;BME280;70650;51.408;7.132;2023-07-31T05:00:50;99931.22;;;16.30;85.85
81181;BME280;70650;51.408;7.132;2023-07-31T05:03:15;99923.72;;;16.24;85.56
81181;BME280;70650;51.408;7.132;2023-07-31T05:05:41;99933.34;;;16.36;85.68
81181;BME280;70650;51.408;7.132;2023-07-31T05:08:06;99921.91;;;16.24;86.36
81181;BME280;70650;51.408;7.132;2023-07-31T05:10:31;99925.59;;;16.33;86.01
81181;BME280;70650;51.408;7.132;2023-07-31T05:12:57;99925.94;;;16.39;86.07
81181;BME280;70650;51.408;7.132;2023-07-31T05:15:23;99929.91;;;16.45;85.76
81181;BME280;70650;51.408;7.132;2023-07-31T05:17:49;99918.50;;;16.43;86.38
81181;BME280;70650;51.408;7.132;2023-07-31T05:20:15;99913.63;;;16.48;85.01
81181;BME280;70650;51.408;7.132;2023-07-31T05:22:40;99918.13;;;16.48;85.33
81181;BME280;70650;51.408;7.132;2023-07-31T05:25:06;99905.03;;;16.44;85.09
81181;BME280;70650;51.408;7.132;2023-07-31T05:27:32;99915.22;;;16.51;85.61
81181;BME280;70650;51.408;7.132;2023-07-31T05:29:58;99907.06;;;16.52;86.28
81181;BME280;70650;51.408;7.132;2023-07-31T05:32:23;99901.72;;;16.52;85.70
81181;BME280;70650;51.408;7.132;2023-07-31T05:34:51;99913.25;;;16.53;85.63
81181;BME280;70650;51.408;7.132;2023-07-31T05:37:17;99927.44;;;16.53;85.24
81181;BME280;70650;51.408;7.132;2023-07-31T05:39:43;99902.50;;;16.43;87.31
81181;BME280;70650;51.408;7.132;2023-07-31T05:42:08;99909.97;;;16.49;85.87
81181;BME280;70650;51.408;7.132;2023-07-31T05:44:33;99902.38;;;16.44;87.07
81181;BME280;70650;51.408;7.132;2023-07-31T05:46:59;99892.09;;;16.40;86.77
81181;BME280;70650;51.408;7.132;2023-07-31T05:49:24;99899.66;;;16.35;87.80
81181;BME280;70650;51.408;7.132;2023-07-31T05:51:49;99895.03;;;16.37;87.14
81181;BME280;70650;51.408;7.132;2023-07-31T05:54:15;99888.00;;;16.36;87.36
81181;BME280;70650;51.408;7.132;2023-07-31T05:56:40;99881.81;;;16.35;86.86
81181;BME280;70650;51.408;7.132;2023-07-31T05:59:05;99869.56;;;16.33;87.59
81181;BME280;70650;51.408;7.132;2023-07-31T06:01:30;99877.47;;;16.34;87.89
81181;BME280;70650;51.408;7.132;2023-07-31T06:03:56;99874.66;;;16.36;86.94
81181;BME280;70650;51.408;7.132;2023-07-31T06:06:21;99878.50;;;16.43;87.09
81181;BME280;70650;51.408;7.132;2023-07-31T06:08:47;99882.72;;;16.46;86.37
81181;BME280;70650;51.408;7.132;2023-07-31T06:11:12;99868.94;;;16.40;86.80
81181;BME280;70650;51.408;7.132;2023-07-31T06:13:37;99866.53;;;16.37;86.31
81181;BME280;70650;51.408;7.132;2023-07-31T06:16:03;99860.53;;;16.45;86.46
81181;BME280;70650;51.408;7.132;2023-07-31T06:18:33;99856.22;;;16.54;85.51
81181;BME280;70650;51.408;7.132;2023-07-31T06:20:59;99849.91;;;16.55;86.29
81181;BME280;70650;51.408;7.132;2023-07-31T06:23:24;99860.72;;;16.53;85.85
81181;BME280;70650;51.408;7.132;2023-07-31T06:25:49;99863.84;;;16.58;86.48
81181;BME280;70650;51.408;7.132;2023-07-31T06:28:15;99852.63;;;16.64;85.31
81181;BME280;70650;51.408;7.132;2023-07-31T06:30:40;99865.38;;;16.61;85.82
81181;BME280;70650;51.408;7.132;2023-07-31T06:33:05;99859.47;;;16.57;86.25
81181;BME280;70650;51.408;7.132;2023-07-31T06:35:30;99863.44;;;16.63;86.92
81181;BME280;70650;51.408;7.132;2023-07-31T06:37:57;99861.88;;;16.60;86.93
81181;BME280;70650;51.408;7.132;2023-07-31T06:40:22;99855.22;;;16.55;87.30
81181;BME280;70650;51.408;7.132;2023-07-31T06:42:48;99865.50;;;16.59;86.76
81181;BME280;70650;51.408;7.132;2023-07-31T06:45:13;99859.03;;;16.52;86.97
81181;BME280;70650;51.408;7.132;2023-07-31T06:47:38;99876.19;;;16.59;86.51
81181;BME280;70650;51.408;7.132;2023-07-31T06:50:04;99860.56;;;16.55;86.86
81181;BME280;70650;51.408;7.132;2023-07-31T06:52:30;99849.72;;;16.47;86.92
81181;BME280;70650;51.408;7.132;2023-07-31T06:55:18;99870.69;;;16.51;87.69
81181;BME280;70650;51.408;7.132;2023-07-31T06:57:44;99865.34;;;16.51;87.20
81181;BME280;70650;51.408;7.132;2023-07-31T07:00:10;99871.00;;;16.58;86.39
81181;BME280;70650;51.408;7.132;2023-07-31T07:02:35;99873.59;;;16.48;87.31
81181;BME280;70650;51.408;7.132;2023-07-31T07:05:01;99873.88;;;16.45;87.46
81181;BME280;70650;51.408;7.132;2023-07-31T07:07:26;99863.22;;;16.45;87.16
81181;BME280;70650;51.408;7.132;2023-07-31T07:09:51;99864.44;;;16.41;87.51
81181;BME280;70650;51.408;7.132;2023-07-31T07:12:17;99867.03;;;16.52;87.59
81181;BME280;70650;51.408;7.132;2023-07-31T07:14:42;99865.47;;;16.50;87.25
81181;BME280;70650;51.408;7.132;2023-07-31T07:17:07;99875.19;;;16.51;87.27
81181;BME280;70650;51.408;7.132;2023-07-31T07:19:33;99877.78;;;16.41;88.93
81181;BME280;70650;51.408;7.132;2023-07-31T07:21:58;99869.19;;;16.37;89.12
81181;BME280;70650;51.408;7.132;2023-07-31T07:24:26;99865.81;;;16.35;88.85
81181;BME280;70650;51.408;7.132;2023-07-31T07:26:52;99867.81;;;16.43;89.18
81181;BME280;70650;51.408;7.132;2023-07-31T07:29:17;99864.69;;;16.38;89.04
81181;BME280;70650;51.408;7.132;2023-07-31T07:31:42;99857.41;;;16.40;88.98
81181;BME280;70650;51.408;7.132;2023-07-31T07:34:08;99855.84;;;16.37;89.12
81181;BME280;70650;51.408;7.132;2023-07-31T07:36:33;99859.34;;;16.38;89.66
81181;BME280;70650;51.408;7.132;2023-07-31T07:38:58;99868.94;;;16.40;89.01
81181;BME280;70650;51.408;7.132;2023-07-31T07:41:24;99851.09;;;16.41;88.84
81181;BME280;70650;51.408;7.132;2023-07-31T07:43:49;99858.78;;;16.34;88.98
81181;BME280;70650;51.408;7.132;2023-07-31T07:46:14;99863.31;;;16.43;88.55
81181;BME280;70650;51.408;7.132;2023-07-31T07:48:39;99853.31;;;16.36;88.97
81181;BME280;70650;51.408;7.132;2023-07-31T07:51:05;99844.84;;;16.31;88.99
81181;BME280;70650;51.408;7.132;2023-07-31T07:53:30;99843.81;;;16.43;89.92
81181;BME280;70650;51.408;7.132;2023-07-31T07:55:56;99853.94;;;16.49;89.08
81181;BME280;70650;51.408;7.132;2023-07-31T07:58:21;99850.75;;;16.55;88.44
81181;BME280;70650;51.408;7.132;2023-07-31T08:00:52;99851.03;;;16.62;87.59
81181;BME280;70650;51.408;7.132;2023-07-31T08:03:18;99849.06;;;16.54;87.65
81181;BME280;70650;51.408;7.132;2023-07-31T08:05:44;99832.06;;;16.55;87.62
81181;BME280;70650;51.408;7.132;2023-07-31T08:08:16;99845.81;;;16.51;88.33
81181;BME280;70650;51.408;7.132;2023-07-31T08:10:42;99843.16;;;16.51;87.99
81181;BME280;70650;51.408;7.132;2023-07-31T08:13:09;99845.09;;;16.49;88.40
81181;BME280;70650;51.408;7.132;2023-07-31T08:15:34;99844.94;;;16.50;88.80
81181;BME280;70650;51.408;7.132;2023-07-31T08:17:59;99842.03;;;16.53;88.80
81181;BME280;70650;51.408;7.132;2023-07-31T08:20:26;99830.75;;;16.50;88.31
81181;BME280;70650;51.408;7.132;2023-07-31T08:22:51;99835.00;;;16.52;88.64
81181;BME280;70650;51.408;7.132;2023-07-31T08:25:18;99825.63;;;16.58;87.70
81181;BME280;70650;51.408;7.132;2023-07-31T08:27:43;99831.41;;;16.63;87.21
81181;BME280;70650;51.408;7.132;2023-07-31T08:30:09;99827.44;;;16.57;88.30
81181;BME280;70650;51.408;7.132;2023-07-31T08:32:35;99824.47;;;16.51;88.51
81181;BME280;70650;51.408;7.132;2023-07-31T08:35:00;99828.25;;;16.48;89.25
81181;BME280;70650;51.408;7.132;2023-07-31T08:37:25;99833.44;;;16.50;89.36
81181;BME280;70650;51.408;7.132;2023-07-31T08:39:51;99815.44;;;16.42;89.00
81181;BME280;70650;51.408;7.132;2023-07-31T08:42:16;99832.59;;;16.49;88.62
81181;BME280;70650;51.408;7.132;2023-07-31T08:44:43;99824.41;;;16.41;87.57
81181;BME280;70650;51.408;7.132;2023-07-31T08:47:09;99834.09;;;16.42;88.81
81181;BME280;70650;51.408;7.132;2023-07-31T08:49:36;99830.59;;;16.41;87.83
81181;BME280;70650;51.408;7.132;2023-07-31T08:52:03;99819.09;;;16.41;88.19
81181;BME280;70650;51.408;7.132;2023-07-31T08:54:29;99812.94;;;16.50;87.63
81181;BME280;70650;51.408;7.132;2023-07-31T08:56:56;99813.66;;;16.52;88.63
81181;BME280;70650;51.408;7.132;2023-07-31T08:59:23;99814.75;;;16.50;89.23
81181;BME280;70650;51.408;7.132;2023-07-31T09:01:50;99823.03;;;16.47;88.71
81181;BME280;70650;51.408;7.132;2023-07-31T09:04:18;99818.72;;;16.55;89.06
81181;BME280;70650;51.408;7.132;2023-07-31T09:06:45;99815.59;;;16.50;87.87
81181;BME280;70650;51.408;7.132;2023-07-31T09:09:12;99820.69;;;16.53;88.57
81181;BME280;70650;51.408;7.132;2023-07-31T09:11:37;99810.72;;;16.55;88.27
81181;BME280;70650;51.408;7.132;2023-07-31T09:14:03;99824.50;;;16.60;88.37
81181;BME280;70650;51.408;7.132;2023-07-31T09:16:36;99821.66;;;16.52;88.60
81181;BME280;70650;51.408;7.132;2023-07-31T09:19:25;99831.88;;;16.47;89.63
81181;BME280;70650;51.408;7.132;2023-07-31T09:21:50;99831.00;;;16.37;89.08
81181;BME280;70650;51.408;7.132;2023-07-31T09:24:28;99823.38;;;16.32;89.39
81181;BME280;70650;51.408;7.132;2023-07-31T09:26:54;99816.94;;;16.35;90.08
81181;BME280;70650;51.408;7.132;2023-07-31T09:29:21;99830.31;;;16.44;90.06
81181;BME280;70650;51.408;7.132;2023-07-31T09:31:46;99816.19;;;16.54;89.60
81181;BME280;70650;51.408;7.132;2023-07-31T09:34:12;99810.06;;;16.63;89.65
81181;BME280;70650;51.408;7.132;2023-07-31T09:36:45;99820.78;;;16.73;89.16
81181;BME280;70650;51.408;7.132;2023-07-31T09:39:14;99814.84;;;16.69;88.28
81181;BME280;70650;51.408;7.132;2023-07-31T09:41:46;99803.72;;;16.64;88.68
81181;BME280;70650;51.408;7.132;2023-07-31T09:44:12;99800.47;;;16.60;88.81
81181;BME280;70650;51.408;7.132;2023-07-31T09:46:37;99802.34;;;16.69;88.99
81181;BME280;70650;51.408;7.132;2023-07-31T09:49:12;99797.00;;;16.69;89.55
81181;BME280;70650;51.408;7.132;2023-07-31T09:51:39;99800.00;;;16.76;88.76
81181;BME280;70650;51.408;7.132;2023-07-31T09:54:15;99793.38;;;16.71;89.03
81181;BME280;70650;51.408;7.132;2023-07-31T09:56:47;99804.94;;;16.81;88.88
81181;BME280;70650;51.408;7.132;2023-07-31T09:59:18;99799.31;;;16.84;88.71
81181;BME280;70650;51.408;7.132;2023-07-31T10:01:45;99784.28;;;16.83;87.89
81181;BME280;70650;51.408;7.132;2023-07-31T10:04:14;99786.81;;;16.84;87.88
81181;BME280;70650;51.408;7.132;2023-07-31T10:06:41;99794.31;;;16.90;87.79
81181;BME280;70650;51.408;7.132;2023-07-31T10:09:09;99792.72;;;16.88;88.91
81181;BME280;70650;51.408;7.132;2023-07-31T10:11:47;99791.03;;;16.87;88.84
81181;BME280;70650;51.408;7.132;2023-07-31T10:14:23;99787.97;;;16.91;88.93
81181;BME280;70650;51.408;7.132;2023-07-31T10:16:49;99777.56;;;16.88;88.53
81181;BME280;70650;51.408;7.132;2023-07-31T10:19:14;99783.72;;;16.89;88.22
81181;BME280;70650;51.408;7.132;2023-07-31T10:21:41;99796.69;;;16.93;87.49
81181;BME280;70650;51.408;7.132;2023-07-31T10:24:08;99782.19;;;16.86;87.78
81181;BME280;70650;51.408;7.132;2023-07-31T10:26:35;99790.06;;;16.88;89.36
81181;BME280;70650;51.408;7.132;2023-07-31T10:29:03;99789.19;;;16.78;88.60
81181;BME280;70650;51.408;7.132;2023-07-31T10:31:29;99787.91;;;16.72;89.11
81181;BME280;70650;51.408;7.132;2023-07-31T10:33:57;99776.38;;;16.72;89.29
81181;BME280;70650;51.408;7.132;2023-07-31T10:36:24;99786.81;;;16.75;89.11
81181;BME280;70650;51.408;7.132;2023-07-31T10:38:51;99790.16;;;16.77;88.81
81181;BME280;70650;51.408;7.132;2023-07-31T10:41:17;99790.09;;;16.67;90.04
81181;BME280;70650;51.408;7.132;2023-07-31T10:43:42;99792.66;;;16.68;89.51
81181;BME280;70650;51.408;7.132;2023-07-31T10:46:14;99789.78;;;16.60;89.54
81181;BME280;70650;51.408;7.132;2023-07-31T10:48:41;99789.00;;;16.69;89.30
81181;BME280;70650;51.408;7.132;2023-07-31T10:51:11;99790.72;;;16.71;89.93
81181;BME280;70650;51.408;7.132;2023-07-31T10:53:41;99800.91;;;16.65;89.15
81181;BME280;70650;51.408;7.132;2023-07-31T10:56:09;99790.94;;;16.67;88.59
81181;BME280;70650;51.408;7.132;2023-07-31T10:58:38;99784.75;;;16.57;89.99
81181;BME280;70650;51.408;7.132;2023-07-31T11:01:05;99788.56;;;16.64;89.29
81181;BME280;70650;51.408;7.132;2023-07-31T11:03:56;99782.56;;;16.72;90.30
81181;BME280;70650;51.408;7.132;2023-07-31T11:06:22;99775.19;;;16.85;89.88
81181;BME280;70650;51.408;7.132;2023-07-31T11:08:49;99779.81;;;16.93;89.00
81181;BME280;70650;51.408;7.132;2023-07-31T11:11:19;99772.78;;;17.02;88.13
81181;BME280;70650;51.408;7.132;2023-07-31T11:13:52;99768.72;;;17.07;87.87
81181;BME280;70650;51.408;7.132;2023-07-31T11:16:21;99780.81;;;17.02;87.60
81181;BME280;70650;51.408;7.132;2023-07-31T11:18:48;99773.94;;;16.99;87.93
81181;BME280;70650;51.408;7.132;2023-07-31T11:23:39;99759.16;;;16.95;88.15
81181;BME280;70650;51.408;7.132;2023-07-31T11:26:07;99776.44;;;17.01;88.41
81181;BME280;70650;51.408;7.132;2023-07-31T11:28:34;99768.72;;;17.07;87.30
81181;BME280;70650;51.408;7.132;2023-07-31T11:31:02;99778.88;;;17.13;86.80
81181;BME280;70650;51.408;7.132;2023-07-31T11:33:28;99770.88;;;17.13;87.10
81181;BME280;70650;51.408;7.132;2023-07-31T11:35:53;99777.34;;;17.20;87.86
81181;BME280;70650;51.408;7.132;2023-07-31T11:38:23;99769.31;;;17.20;87.72
81181;BME280;70650;51.408;7.132;2023-07-31T11:40:49;99765.41;;;17.25;87.58
81181;BME280;70650;51.408;7.132;2023-07-31T11:43:15;99764.94;;;17.29;88.01
81181;BME280;70650;51.408;7.132;2023-07-31T11:45:46;99761.31;;;17.40;86.71
81181;BME280;70650;51.408;7.132;2023-07-31T11:48:19;99765.81;;;17.39;88.65
81181;BME280;70650;51.408;7.132;2023-07-31T11:50:47;99766.22;;;17.44;86.43
81181;BME280;70650;51.408;7.132;2023-07-31T11:53:16;99761.72;;;17.45;86.33
81181;BME280;70650;51.408;7.132;2023-07-31T11:55:42;99762.31;;;17.48;86.72
81181;BME280;70650;51.408;7.132;2023-07-31T11:58:10;99762.00;;;17.52;87.22
81181;BME280;70650;51.408;7.132;2023-07-31T12:00:36;99751.47;;;17.60;86.28
81181;BME280;70650;51.408;7.132;2023-07-31T12:03:01;99764.41;;;17.64;87.01
81181;BME280;70650;51.408;7.132;2023-07-31T12:05:27;99745.25;;;17.69;85.83
81181;BME280;70650;51.408;7.132;2023-07-31T12:07:53;99747.78;;;17.70;85.74
81181;BME280;70650;51.408;7.132;2023-07-31T12:10:29;99749.19;;;17.74;84.96
81181;BME280;70650;51.408;7.132;2023-07-31T12:15:44;99743.84;;;17.65;85.38
81181;BME280;70650;51.408;7.132;2023-07-31T12:18:17;99751.72;;;17.66;86.37
81181;BME280;70650;51.408;7.132;2023-07-31T12:20:53;99751.72;;;17.66;86.39
81181;BME280;70650;51.408;7.132;2023-07-31T12:23:24;99751.47;;;17.60;86.86
81181;BME280;70650;51.408;7.132;2023-07-31T12:28:36;99758.22;;;17.44;86.48
81181;BME280;70650;51.408;7.132;2023-07-31T12:31:02;99745.13;;;17.41;86.92
81181;BME280;70650;51.408;7.132;2023-07-31T12:33:32;99746.81;;;17.42;87.38
81181;BME280;70650;51.408;7.132;2023-07-31T12:36:00;99746.94;;;17.41;86.51
81181;BME280;70650;51.408;7.132;2023-07-31T12:38:25;99745.00;;;17.43;85.93
81181;BME280;70650;51.408;7.132;2023-07-31T12:40:52;99749.34;;;17.44;86.64
81181;BME280;70650;51.408;7.132;2023-07-31T12:43:17;99736.56;;;17.38;86.48
81181;BME280;70650;51.408;7.132;2023-07-31T12:45:43;99729.22;;;17.40;86.99
81181;BME280;70650;51.408;7.132;2023-07-31T12:48:08;99741.75;;;17.39;86.12
81181;BME280;70650;51.408;7.132;2023-07-31T12:50:33;99739.91;;;17.40;85.27
81181;BME280;70650;51.408;7.132;2023-07-31T12:53:01;99737.66;;;17.45;85.47
81181;BME280;70650;51.408;7.132;2023-07-31T12:55:28;99737.41;;;17.48;85.67
81181;BME280;70650;51.408;7.132;2023-07-31T12:57:54;99737.25;;;17.49;85.74
81181;BME280;70650;51.408;7.132;2023-07-31T13:00:19;99737.09;;;17.51;85.67
81181;BME280;70650;51.408;7.132;2023-07-31T13:02:45;99727.66;;;17.57;85.67
81181;BME280;70650;51.408;7.132;2023-07-31T13:05:10;99726.00;;;17.56;85.50
81181;BME280;70650;51.408;7.132;2023-07-31T13:07:36;99719.66;;;17.57;85.50
81181;BME280;70650;51.408;7.132;2023-07-31T13:10:04;99723.16;;;17.57;85.52